Archival Weather

Václav Havel Intl Apt

Prague, Czechia (LKPR)

Report from: Monday, May 29, 2023 6:00 PM CEST
Current time: Saturday, February 24, 2024 5:33 PM CET

Current weather – Weather history – Daily summaries
Weather forecast

Temperature22.0°C (71.6°F)
Dew point4.0°C (39.2°F)
Winds 8 kts (4.1 m/s, 9.2 mph) North (350°)
Clouds Sky clear
Altimeter30.09 in.Hg (1019 mB)
Relative humidity31 %
Density altitude745 ft. (227 m)
Remarks Ceiling and visibility OK
No significant changes expected in the next two hours
Flight conditions Visual Meteorological Conditions
Raw dataLKPR 291600Z 35008KT CAVOK 22/04 Q1019 NOSIG
An error has occurred. This application may no longer respond until reloaded. Reload 🗙